ADDS METAR Data INFO
IDs: Format: Raw Decoded Include TAF

Data at: 0633 UTC 15 Dec 2017

KSGJ 150556Z AUTO 21004KT 10SM SCT039 BKN065 14/12 A3005 RMK AO2 SLP176 T01440117 10156 20128 58003
KSGJ 150456Z AUTO 10SM FEW065 14/12 A3006 RMK AO2 SLP179 T01440117 402060056
KSGJ 150356Z AUTO 23004KT 10SM CLR 14/12 A3007 RMK AO2 SLP180 T01390117
KSGJ 150256Z AUTO 23003KT 10SM SCT070 14/11 A3006 RMK AO2 SLP179 T01390111 51009
KSGJ 150156Z AUTO 21004KT 10SM BKN065 14/11 A3006 RMK AO2 SLP176 T01390111
KSGJ 150056Z 00000KT 10SM CLR 14/12 A3005 RMK AO2 SLP174 T01390117
KSGJ 142356Z 00000KT 10SM CLR 16/12 A3004 RMK AO2 SLP170 T01560117 10206 20156 51018
KSGJ 142256Z 00000KT 10SM CLR 17/11 A3001 RMK AO2 SLP162 T01720111
KSGJ 142156Z 25004KT 10SM CLR 19/11 A3001 RMK AO2 SLP161 T01890111
KSGJ 142056Z 24008KT 10SM CLR 19/11 A2998 RMK AO2 SLP152 T01940106 55006
KSGJ 141956Z 22007G15KT 10SM CLR 21/11 A2998 RMK AO2 SLP151 T02060106
KSGJ 141856Z 22010KT 10SM CLR 20/11 A2998 RMK AO2 SLP152 T02000106
KSGJ 141756Z 23009KT 10SM CLR 19/10 A3000 RMK AO2 SLP158 T01890100 10189 20083 58023
KSGJ 141656Z 24007KT 10SM CLR 17/09 A3005 RMK AO2 SLP173 T01670089
KSGJ 141556Z 27007KT 10SM CLR 16/08 A3006 RMK AO2 SLP178 T01560078
KSGJ 141456Z 24005KT 10SM CLR 13/09 A3007 RMK AO2 SLP181 T01330089 52017
KSGJ 141356Z 25006KT 10SM CLR 11/08 A3006 RMK AO2 SLP177 T01060083
KSGJ 141256Z 24007KT 10SM CLR 10/08 A3003 RMK AO2 SLP168 T01000078
KSGJ 141156Z 22005KT 10SM CLR 08/07 A3002 RMK AO2 SLP164 T00830067 10083 20056 53003
KSGJ 141056Z AUTO 24005KT 10SM SCT031 08/06 A3001 RMK AO2 SLP162 T00780056
KSGJ 140956Z AUTO 22004KT 10SM SCT033 07/05 A3000 RMK AO2 SLP156 T00720050
KSGJ 140856Z AUTO 22003KT 10SM CLR 06/04 A3001 RMK AO2 SLP161 T00610039 58004
KSGJ 140756Z AUTO 22003KT 10SM CLR 06/03 A3002 RMK AO2 SLP166 T00610033
KSGJ 140656Z AUTO 23003KT 10SM CLR 06/03 A3002 RMK AO2 SLP165 T00610028
KSGJ 140556Z AUTO 23004KT 10SM CLR 07/02 A3002 RMK AO2 SLP164 T00670017 10083 20067 58007
KSGJ 140456Z AUTO 23004KT 10SM CLR 07/01 A3003 RMK AO2 SLP167 T00670006 401440044
KSGJ 140356Z AUTO 23005KT 10SM CLR 07/M01 A3004 RMK AO2 SLP170 T00721006
KSGJ 140256Z AUTO 24006KT 10SM CLR 08/01 A3004 RMK AO2 SLP171 T00780006 53000
KSGJ 140156Z AUTO 22004KT 10SM CLR 08/02 A3003 RMK AO2 SLP169 T00780022
KSGJ 140056Z 22004KT 10SM CLR 08/03 A3004 RMK AO2 SLP173 T00780028
KSGJ 132356Z 25003KT 10SM CLR 09/02 A3004 RMK AO2 SLP171 T00890022 10144 20083 53002
KSGJ 132256Z 25004KT 10SM CLR 11/01 A3003 RMK AO2 SLP169 T01110011
KSGJ 132156Z 27005KT 10SM CLR 13/M01 A3003 RMK AO2 SLP169 T01331011
KSGJ 132056Z 25007KT 10SM CLR 14/M02 A3004 RMK AO2 SLP170 T01391022 55014
KSGJ 131956Z 30008KT 10SM CLR 14/M03 A3003 RMK AO2 SLP168 T01391033
KSGJ 131856Z 29008KT 10SM CLR 13/M04 A3005 RMK AO2 SLP175 T01281039